createdAt,value
2019-01-22T00:02:10.144Z,-0.26
2019-01-22T00:04:38.430Z,-0.24
2019-01-22T00:07:06.721Z,-0.20
2019-01-22T00:09:35.126Z,-0.17
2019-01-22T00:12:04.221Z,-0.17
2019-01-22T00:14:32.511Z,-0.23
2019-01-22T00:17:00.757Z,-0.29
2019-01-22T00:19:29.009Z,-0.28
2019-01-22T00:21:57.291Z,-0.25
2019-01-22T00:24:25.576Z,-0.21
2019-01-22T00:26:53.840Z,-0.22
2019-01-22T00:29:22.136Z,-0.19
2019-01-22T00:31:50.377Z,-0.31
2019-01-22T00:34:18.661Z,-0.27
2019-01-22T00:36:47.084Z,-0.26
2019-01-22T00:39:15.809Z,-0.33
2019-01-22T00:41:44.102Z,-0.21
2019-01-22T00:44:12.394Z,-0.16
2019-01-22T00:46:40.646Z,-0.16
2019-01-22T00:49:08.892Z,-0.17
2019-01-22T00:51:37.285Z,-0.14
2019-01-22T00:54:05.815Z,-0.21
2019-01-22T00:56:34.068Z,-0.27
2019-01-22T00:59:02.354Z,-0.19
2019-01-22T01:01:30.604Z,-0.24
2019-01-22T01:03:58.888Z,-0.29
2019-01-22T01:06:27.174Z,-0.26
2019-01-22T01:08:55.783Z,-0.25
2019-01-22T01:11:24.100Z,-0.28
2019-01-22T01:13:52.347Z,-0.20
2019-01-22T01:16:20.595Z,-0.19
2019-01-22T01:18:48.891Z,-0.17
2019-01-22T01:21:17.139Z,-0.11
2019-01-22T01:23:45.586Z,0.00
2019-01-22T01:26:13.862Z,-0.10
2019-01-22T01:28:42.107Z,-0.23
2019-01-22T01:31:10.387Z,-0.22
2019-01-22T01:33:38.636Z,-0.24
2019-01-22T01:36:06.918Z,-0.23
2019-01-22T01:38:35.478Z,-0.30
2019-01-22T01:41:04.251Z,-0.33
2019-01-22T01:43:32.545Z,-0.36
2019-01-22T01:46:00.793Z,-0.48
2019-01-22T01:48:29.037Z,-0.49
2019-01-22T01:50:57.330Z,-0.47
2019-01-22T01:53:25.960Z,-0.36
2019-01-22T01:55:54.239Z,-0.35
2019-01-22T01:58:22.483Z,-0.25
2019-01-22T02:00:50.766Z,-0.16
2019-01-22T02:03:19.010Z,-0.10
2019-01-22T02:05:47.289Z,-0.04
2019-01-22T02:08:15.807Z,0.00
2019-01-22T02:10:44.109Z,0.02
2019-01-22T02:13:12.356Z,-0.01
2019-01-22T02:15:46.414Z,0.05
2019-01-22T02:18:20.725Z,0.04
2019-01-22T02:20:58.205Z,-0.08
2019-01-22T02:23:32.618Z,-0.03
2019-01-22T02:26:04.162Z,0.03
2019-01-22T02:28:41.721Z,-0.04
2019-01-22T02:31:28.541Z,-0.12
2019-01-22T02:34:02.735Z,-0.21
2019-01-22T02:36:50.618Z,-0.19
2019-01-22T02:39:24.681Z,-0.13
2019-01-22T02:41:56.193Z,-0.22
2019-01-22T02:44:30.754Z,-0.24
2019-01-22T02:47:08.402Z,-0.36
2019-01-22T02:50:04.278Z,-0.42
2019-01-22T02:52:41.838Z,-0.46
2019-01-22T02:55:13.396Z,-0.55
2019-01-22T02:57:51.208Z,-0.68
2019-01-22T03:00:57.916Z,-0.83
2019-01-22T03:03:35.393Z,-0.91
2019-01-22T03:06:28.180Z,-1.02
2019-01-22T03:09:18.845Z,-1.15
2019-01-22T03:11:56.578Z,-1.34
2019-01-22T03:15:01.474Z,-1.44
2019-01-22T03:17:54.131Z,-1.53
2019-01-22T03:20:41.015Z,-1.59
2019-01-22T03:23:24.185Z,-1.58
2019-01-22T03:26:07.340Z,-1.67
2019-01-22T03:28:51.015Z,-1.80
2019-01-22T03:31:25.150Z,-1.89
2019-01-22T03:34:05.249Z,-1.89
2019-01-22T03:36:51.786Z,-1.95
2019-01-22T03:39:26.395Z,-1.93
2019-01-22T03:42:16.031Z,-1.89
2019-01-22T03:44:59.201Z,-2.01
2019-01-22T03:47:42.578Z,-2.09
2019-01-22T03:50:14.128Z,-2.14
2019-01-22T03:52:46.038Z,-2.18
2019-01-22T03:55:29.414Z,-2.24
2019-01-22T03:57:57.672Z,-2.28
2019-01-22T04:00:26.098Z,-2.35
2019-01-22T04:02:54.623Z,-2.42
2019-01-22T04:05:22.910Z,-2.52
2019-01-22T04:07:51.157Z,-2.57
2019-01-22T04:10:22.664Z,-2.65
2019-01-22T04:12:50.954Z,-2.78
2019-01-22T04:15:22.496Z,-2.88
2019-01-22T04:17:51.053Z,-2.98
2019-01-22T04:20:19.299Z,-3.06
2019-01-22T04:22:48.819Z,-3.06
2019-01-22T04:25:44.064Z,-3.10
2019-01-22T04:28:34.860Z,-3.15
2019-01-22T04:31:10.262Z,-3.24
2019-01-22T04:34:06.779Z,-3.34
2019-01-22T04:37:05.623Z,-3.39
2019-01-22T04:39:43.041Z,-3.49
2019-01-22T04:42:14.580Z,-3.56
2019-01-22T04:44:54.946Z,-3.68
2019-01-22T04:47:41.597Z,-3.64
2019-01-22T04:50:22.366Z,-3.70
2019-01-22T04:53:08.744Z,-3.76
2019-01-22T04:55:48.529Z,-3.74
2019-01-22T04:58:20.072Z,-3.74
2019-01-22T05:01:03.023Z,-3.79
2019-01-22T05:03:37.562Z,-3.81
2019-01-22T05:06:21.078Z,-3.85
2019-01-22T05:08:58.219Z,-3.88
2019-01-22T05:11:41.762Z,-3.84
2019-01-22T05:14:22.071Z,-3.80
2019-01-22T05:16:56.180Z,-3.85
2019-01-22T05:19:30.708Z,-3.83
2019-01-22T05:22:19.676Z,-3.81
2019-01-22T05:25:06.313Z,-3.78
2019-01-22T05:27:41.114Z,-3.76
2019-01-22T05:30:15.602Z,-3.78
2019-01-22T05:33:06.406Z,-3.80
2019-01-22T05:35:40.752Z,-3.85
2019-01-22T05:38:21.337Z,-3.89
2019-01-22T05:41:15.648Z,-3.88
2019-01-22T05:44:09.841Z,-3.87
2019-01-22T05:46:59.541Z,-3.86
2019-01-22T05:50:06.386Z,-3.87
2019-01-22T05:52:58.921Z,-3.94
2019-01-22T05:55:39.093Z,-3.99
2019-01-22T05:58:24.927Z,-4.01
2019-01-22T06:00:56.497Z,-4.07
2019-01-22T06:03:31.050Z,-4.07
2019-01-22T06:06:17.827Z,-4.07
2019-01-22T06:08:52.188Z,-4.08
2019-01-22T06:11:29.319Z,-4.02
2019-01-22T06:14:19.016Z,-4.06
2019-01-22T06:17:05.414Z,-4.06
2019-01-22T06:19:54.575Z,-4.09
2019-01-22T06:22:49.068Z,-4.07
2019-01-22T06:25:49.873Z,-4.06
2019-01-22T06:28:33.201Z,-4.06
2019-01-22T06:31:10.300Z,-4.09
2019-01-22T06:33:47.583Z,-4.06
2019-01-22T06:36:27.695Z,-4.06
2019-01-22T06:39:15.931Z,-4.11
2019-01-22T06:42:03.916Z,-4.11
2019-01-22T06:44:47.410Z,-4.17
2019-01-22T06:47:24.544Z,-4.18
2019-01-22T06:50:01.991Z,-4.16
2019-01-22T06:52:39.340Z,-4.09
2019-01-22T06:55:13.643Z,-4.14
2019-01-22T06:57:48.145Z,-4.14
2019-01-22T07:00:22.447Z,-4.10
2019-01-22T07:02:56.830Z,-4.15
2019-01-22T07:05:42.687Z,-4.11
2019-01-22T07:08:18.466Z,-4.13
2019-01-22T07:10:52.696Z,-4.10
2019-01-22T07:13:30.043Z,-4.04
2019-01-22T07:16:07.443Z,-3.98
2019-01-22T07:18:44.497Z,-3.97
2019-01-22T07:21:27.635Z,-4.00
2019-01-22T07:24:14.198Z,-3.96
2019-01-22T07:27:05.383Z,-3.85
2019-01-22T07:29:58.188Z,-3.82
2019-01-22T07:32:29.693Z,-3.75
2019-01-22T07:35:10.327Z,-3.66
2019-01-22T07:37:41.831Z,-3.67
2019-01-22T07:40:27.907Z,-3.58
2019-01-22T07:43:02.269Z,-3.54
2019-01-22T07:45:39.579Z,-3.50
2019-01-22T07:48:11.086Z,-3.46
2019-01-22T07:50:54.701Z,-3.37
2019-01-22T07:53:26.206Z,-3.34
2019-01-22T07:56:17.356Z,-3.28
2019-01-22T07:58:51.840Z,-3.25
2019-01-22T08:01:26.341Z,-3.20
2019-01-22T08:04:14.212Z,-3.16
2019-01-22T08:07:02.266Z,-3.09
2019-01-22T08:09:33.807Z,-3.00
2019-01-22T08:12:26.337Z,-2.94
2019-01-22T08:14:57.891Z,-2.90
2019-01-22T08:17:47.609Z,-2.82
2019-01-22T08:20:53.816Z,-2.72
2019-01-22T08:23:31.386Z,-2.67
2019-01-22T08:26:23.549Z,-2.61
2019-01-22T08:29:03.928Z,-2.55
2019-01-22T08:31:55.049Z,-2.45
2019-01-22T08:34:38.722Z,-2.37
2019-01-22T08:37:29.781Z,-2.27
2019-01-22T08:40:06.990Z,-2.22
2019-01-22T08:42:50.772Z,-2.11
2019-01-22T08:45:28.543Z,-2.05
2019-01-22T08:48:03.205Z,-1.95
2019-01-22T08:50:37.483Z,-1.85
2019-01-22T08:53:11.759Z,-1.77
2019-01-22T08:55:54.618Z,-1.71
2019-01-22T08:58:38.192Z,-1.58
2019-01-22T09:01:18.601Z,-1.51
2019-01-22T09:04:05.269Z,-1.37
2019-01-22T09:06:59.571Z,-1.26
2019-01-22T09:09:42.652Z,-1.17
2019-01-22T09:12:32.041Z,-1.06
2019-01-22T09:15:36.712Z,-0.93
2019-01-22T09:18:35.630Z,-0.85
2019-01-22T09:21:10.193Z,-0.72
2019-01-22T09:24:01.768Z,-0.65
2019-01-22T09:26:33.495Z,-0.56
2019-01-22T09:29:11.215Z,-0.48
2019-01-22T09:31:58.066Z,-0.33
2019-01-22T09:35:01.511Z,-0.22
2019-01-22T09:37:32.107Z,-0.19
2019-01-22T09:40:00.404Z,-0.13
2019-01-22T09:42:28.647Z,0.00
2019-01-22T09:44:56.927Z,-0.08
2019-01-22T09:47:25.170Z,0.02
2019-01-22T09:49:53.447Z,0.10
2019-01-22T09:52:21.727Z,0.18
2019-01-22T09:54:50.012Z,0.14
2019-01-22T09:57:18.252Z,0.15
2019-01-22T09:59:46.534Z,0.25
2019-01-22T10:02:14.820Z,0.33
2019-01-22T10:04:43.072Z,0.45
2019-01-22T10:07:11.357Z,0.54
2019-01-22T10:09:39.712Z,0.60
2019-01-22T10:12:07.996Z,0.59
2019-01-22T10:14:36.234Z,0.61
2019-01-22T10:17:04.527Z,0.63
2019-01-22T10:19:32.777Z,0.57
2019-01-22T10:22:01.015Z,0.67
2019-01-22T10:24:30.420Z,0.64
2019-01-22T10:26:58.710Z,0.62
2019-01-22T10:29:26.955Z,0.66
2019-01-22T10:31:55.198Z,0.68
2019-01-22T10:34:23.483Z,0.71
2019-01-22T10:36:51.765Z,0.60
2019-01-22T10:39:20.007Z,0.65
2019-01-22T10:41:48.286Z,0.67
2019-01-22T10:44:16.535Z,0.69
2019-01-22T10:46:44.811Z,0.76
2019-01-22T10:49:13.055Z,0.78
2019-01-22T10:51:41.327Z,0.71
2019-01-22T10:54:09.613Z,0.77
2019-01-22T10:56:37.882Z,0.83
2019-01-22T10:59:06.126Z,0.89
2019-01-22T11:01:34.413Z,0.87
2019-01-22T11:04:02.661Z,0.87
2019-01-22T11:06:30.954Z,0.87
2019-01-22T11:08:59.203Z,0.97
2019-01-22T11:11:27.502Z,0.95
2019-01-22T11:13:55.742Z,0.95
2019-01-22T11:16:23.982Z,1.08
2019-01-22T11:18:52.314Z,1.16
2019-01-22T11:21:20.554Z,1.16
2019-01-22T11:23:48.831Z,1.19
2019-01-22T11:26:17.104Z,1.28
2019-01-22T11:28:45.347Z,1.34
2019-01-22T11:31:13.630Z,1.33
2019-01-22T11:33:41.880Z,1.35
2019-01-22T11:36:10.153Z,1.40
2019-01-22T11:38:38.394Z,1.34
2019-01-22T11:41:06.684Z,1.39
2019-01-22T11:43:34.927Z,1.45
2019-01-22T11:46:04.215Z,1.47
2019-01-22T11:48:32.501Z,1.53
2019-01-22T11:51:00.761Z,1.68
2019-01-22T11:53:29.023Z,1.61
2019-01-22T11:55:57.300Z,1.63
2019-01-22T11:58:25.580Z,1.68
2019-01-22T12:00:55.432Z,1.68
2019-01-22T12:03:23.686Z,1.68
2019-01-22T12:05:53.379Z,1.69
2019-01-22T12:08:21.695Z,1.66
2019-01-22T12:10:49.937Z,1.68
2019-01-22T12:13:18.273Z,1.70
2019-01-22T12:15:46.553Z,1.67
2019-01-22T12:18:14.840Z,1.69
2019-01-22T12:20:44.623Z,1.70
2019-01-22T12:23:12.864Z,1.71
2019-01-22T12:25:41.160Z,1.77
2019-01-22T12:28:09.406Z,1.72
2019-01-22T12:30:38.221Z,1.87
2019-01-22T12:33:06.570Z,1.81
2019-01-22T12:35:34.811Z,1.96
2019-01-22T12:38:03.094Z,1.98
2019-01-22T12:40:31.356Z,1.95
2019-01-22T12:42:59.648Z,1.94
2019-01-22T12:45:36.344Z,2.08
2019-01-22T12:48:05.319Z,2.10
2019-01-22T12:50:33.622Z,2.04
2019-01-22T12:53:01.874Z,2.11
2019-01-22T12:55:30.145Z,2.21
2019-01-22T12:57:58.431Z,2.24
2019-01-22T13:00:31.599Z,2.17
2019-01-22T13:02:59.882Z,2.07
2019-01-22T13:05:34.499Z,2.10
2019-01-22T13:08:02.739Z,2.23
2019-01-22T13:10:31.011Z,2.14
2019-01-22T13:12:59.299Z,2.16
2019-01-22T13:15:27.575Z,2.11
2019-01-22T13:17:55.817Z,2.19
2019-01-22T13:20:24.170Z,2.18
2019-01-22T13:22:52.450Z,2.20
2019-01-22T13:25:20.984Z,2.10
2019-01-22T13:27:49.570Z,2.01
2019-01-22T13:30:28.456Z,2.07
2019-01-22T13:32:56.694Z,2.07
2019-01-22T13:35:24.979Z,1.94
2019-01-22T13:37:53.253Z,1.85
2019-01-22T13:40:21.516Z,1.79
2019-01-22T13:42:49.790Z,1.78
2019-01-22T13:45:33.563Z,1.79
2019-01-22T13:48:03.691Z,1.77
2019-01-22T13:50:31.939Z,1.73
2019-01-22T13:53:00.225Z,1.69
2019-01-22T13:55:34.252Z,1.77
2019-01-22T13:58:02.534Z,1.71
2019-01-22T14:00:30.847Z,1.77
2019-01-22T14:03:00.673Z,1.79
2019-01-22T14:05:28.959Z,1.80
2019-01-22T14:07:57.246Z,1.78
2019-01-22T14:10:25.538Z,1.81
2019-01-22T14:12:53.801Z,1.76
2019-01-22T14:15:24.984Z,1.75
2019-01-22T14:17:53.224Z,1.69
2019-01-22T14:20:21.514Z,1.67
2019-01-22T14:22:49.792Z,1.63
2019-01-22T14:25:20.318Z,1.54
2019-01-22T14:27:48.597Z,1.55
2019-01-22T14:30:22.685Z,1.51
2019-01-22T14:32:50.964Z,1.41
2019-01-22T14:35:19.203Z,1.38
2019-01-22T14:37:47.632Z,1.33
2019-01-22T14:40:15.912Z,1.30
2019-01-22T14:42:44.205Z,1.23
2019-01-22T14:45:17.462Z,1.16
2019-01-22T14:47:45.759Z,1.13
2019-01-22T14:50:22.506Z,1.07
2019-01-22T14:52:50.788Z,1.10
2019-01-22T14:55:19.067Z,1.03
2019-01-22T14:57:47.704Z,0.98
2019-01-22T15:00:20.890Z,0.93
2019-01-22T15:02:49.175Z,1.00
2019-01-22T15:05:17.420Z,0.98
2019-01-22T15:07:45.705Z,0.97
2019-01-22T15:10:15.929Z,0.92
2019-01-22T15:12:45.153Z,0.85
2019-01-22T15:15:15.330Z,0.86
2019-01-22T15:17:43.613Z,0.73
2019-01-22T15:20:20.454Z,0.71
2019-01-22T15:22:48.739Z,0.61
2019-01-22T15:25:17.128Z,0.56
2019-01-22T15:27:45.752Z,0.62
2019-01-22T15:30:28.292Z,0.57
2019-01-22T15:32:56.608Z,0.57
2019-01-22T15:35:24.854Z,0.43
2019-01-22T15:37:53.139Z,0.33
2019-01-22T15:40:26.138Z,0.32
2019-01-22T15:42:54.396Z,0.23
2019-01-22T15:45:23.000Z,0.23
2019-01-22T15:47:51.286Z,0.15
2019-01-22T15:50:21.107Z,0.07
2019-01-22T15:52:49.497Z,0.04
2019-01-22T15:55:21.047Z,0.00
2019-01-22T15:57:49.291Z,-0.12
2019-01-22T16:00:19.523Z,-0.03
2019-01-22T16:02:47.813Z,-0.05
2019-01-22T16:05:16.055Z,-0.09
2019-01-22T16:07:44.303Z,-0.14
2019-01-22T16:10:13.185Z,-0.10
2019-01-22T16:12:41.478Z,-0.21
2019-01-22T16:15:12.817Z,-0.25
2019-01-22T16:17:41.058Z,-0.33
2019-01-22T16:20:17.997Z,-0.40
2019-01-22T16:22:46.279Z,-0.40
2019-01-22T16:25:14.520Z,-0.46
2019-01-22T16:27:43.177Z,-0.51
2019-01-22T16:30:17.211Z,-0.49
2019-01-22T16:32:45.495Z,-0.51
2019-01-22T16:35:18.820Z,-0.55
2019-01-22T16:37:47.108Z,-0.62
2019-01-22T16:40:16.482Z,-0.68
2019-01-22T16:42:45.199Z,-0.69
2019-01-22T16:45:24.947Z,-0.78
2019-01-22T16:47:53.352Z,-0.90
2019-01-22T16:50:22.055Z,-0.96
2019-01-22T16:52:50.468Z,-0.86
2019-01-22T16:55:24.750Z,-0.90
2019-01-22T16:57:52.996Z,-0.90
2019-01-22T17:00:24.126Z,-1.00
2019-01-22T17:02:52.538Z,-1.03
2019-01-22T17:05:20.842Z,-1.01
2019-01-22T17:07:49.090Z,-1.04
2019-01-22T17:10:19.237Z,-1.07
2019-01-22T17:12:47.556Z,-1.07
2019-01-22T17:15:16.780Z,-1.14
2019-01-22T17:17:45.025Z,-1.14
2019-01-22T17:20:24.908Z,-1.30
2019-01-22T17:22:53.215Z,-1.33
2019-01-22T17:25:23.170Z,-1.42
2019-01-22T17:27:51.467Z,-1.38
2019-01-22T17:30:22.349Z,-1.50
2019-01-22T17:32:52.231Z,-1.57
2019-01-22T17:35:20.651Z,-1.48
2019-01-22T17:37:48.901Z,-1.57
2019-01-22T17:40:17.156Z,-1.58
2019-01-22T17:42:45.463Z,-1.75
2019-01-22T17:45:13.747Z,-1.73
2019-01-22T17:47:42.109Z,-1.71
2019-01-22T17:50:12.863Z,-1.69
2019-01-22T17:52:41.185Z,-1.78
2019-01-22T17:55:11.871Z,-1.75
2019-01-22T17:57:40.170Z,-1.83
2019-01-22T18:00:16.194Z,-1.86
2019-01-22T18:02:44.483Z,-1.93
2019-01-22T18:05:15.206Z,-1.89
2019-01-22T18:07:43.521Z,-1.87
2019-01-22T18:10:14.471Z,-1.85
2019-01-22T18:12:42.734Z,-1.77
2019-01-22T18:15:13.663Z,-1.82
2019-01-22T18:17:41.981Z,-1.90
2019-01-22T18:20:13.274Z,-1.97
2019-01-22T18:22:41.553Z,-2.00
2019-01-22T18:25:10.785Z,-2.00
2019-01-22T18:27:39.084Z,-2.03
2019-01-22T18:30:13.432Z,-2.10
2019-01-22T18:32:41.691Z,-2.05
2019-01-22T18:35:22.065Z,-2.18
2019-01-22T18:37:50.335Z,-2.23
2019-01-22T18:40:19.410Z,-2.31
2019-01-22T18:42:47.675Z,-2.37
2019-01-22T18:45:17.514Z,-2.35
2019-01-22T18:47:45.761Z,-2.42
2019-01-22T18:50:23.147Z,-2.36
2019-01-22T18:52:51.681Z,-2.31
2019-01-22T18:55:21.449Z,-2.32
2019-01-22T18:57:50.299Z,-2.34
2019-01-22T19:00:22.837Z,-2.36
2019-01-22T19:02:51.686Z,-2.44
2019-01-22T19:05:20.085Z,-2.51
2019-01-22T19:07:48.456Z,-2.51
2019-01-22T19:10:22.546Z,-2.49
2019-01-22T19:12:50.980Z,-2.55
2019-01-22T19:15:19.856Z,-2.55
2019-01-22T19:17:48.156Z,-2.55
2019-01-22T19:20:16.560Z,-2.54
2019-01-22T19:22:44.803Z,-2.55
2019-01-22T19:25:21.742Z,-2.55
2019-01-22T19:27:50.036Z,-2.52
2019-01-22T19:30:29.278Z,-2.53
2019-01-22T19:32:57.593Z,-2.62
2019-01-22T19:35:25.839Z,-2.67
2019-01-22T19:37:54.144Z,-2.71
2019-01-22T19:40:22.399Z,-2.63
2019-01-22T19:42:50.693Z,-2.65
2019-01-22T19:45:24.697Z,-2.67
2019-01-22T19:47:52.936Z,-2.63
2019-01-22T19:50:21.249Z,-2.70
2019-01-22T19:52:49.490Z,-2.71
2019-01-22T19:55:17.742Z,-2.74
2019-01-22T19:57:46.035Z,-2.77
2019-01-22T20:00:19.732Z,-2.78
2019-01-22T20:02:47.982Z,-2.78
2019-01-22T20:05:16.301Z,-2.84
2019-01-22T20:07:44.623Z,-2.75
2019-01-22T20:10:17.326Z,-2.73
2019-01-22T20:12:45.590Z,-2.82
2019-01-22T20:15:21.252Z,-2.79
2019-01-22T20:17:49.494Z,-2.87
2019-01-22T20:20:18.985Z,-2.91
2019-01-22T20:22:47.278Z,-2.85
2019-01-22T20:25:16.339Z,-2.87
2019-01-22T20:27:48.294Z,-2.87
2019-01-22T20:30:18.001Z,-2.82
2019-01-22T20:32:46.357Z,-2.89
2019-01-22T20:35:14.603Z,-2.92
2019-01-22T20:37:42.899Z,-2.96
2019-01-22T20:40:15.404Z,-2.99
2019-01-22T20:42:43.693Z,-3.11
2019-01-22T20:45:17.082Z,-3.04
2019-01-22T20:47:45.370Z,-3.03
2019-01-22T20:50:18.987Z,-3.06
2019-01-22T20:52:44.964Z,-3.08
2019-01-22T20:55:18.285Z,-3.12
2019-01-22T20:57:46.573Z,-3.18
2019-01-22T21:00:19.641Z,-3.16
2019-01-22T21:02:47.928Z,-3.12
2019-01-22T21:05:18.388Z,-3.05
2019-01-22T21:07:46.843Z,-3.16
2019-01-22T21:10:21.547Z,-3.14
2019-01-22T21:12:49.860Z,-3.22
2019-01-22T21:15:18.113Z,-3.23
2019-01-22T21:17:46.400Z,-3.23
2019-01-22T21:20:18.168Z,-3.19
2019-01-22T21:22:46.495Z,-3.17
2019-01-22T21:25:19.757Z,-3.25
2019-01-22T21:27:48.000Z,-3.34
2019-01-22T21:30:19.347Z,-3.31
2019-01-22T21:32:47.591Z,-3.37
2019-01-22T21:35:15.835Z,-3.29
2019-01-22T21:37:44.139Z,-3.30
2019-01-22T21:40:14.132Z,-3.25
2019-01-22T21:42:42.423Z,-3.30
2019-01-22T21:45:20.044Z,-3.32
2019-01-22T21:47:48.330Z,-3.34
2019-01-22T21:50:16.576Z,-3.32
2019-01-22T21:52:44.930Z,-3.31
2019-01-22T21:55:15.416Z,-3.30
2019-01-22T21:57:43.699Z,-3.33
2019-01-22T22:00:15.596Z,-3.36
2019-01-22T22:02:44.547Z,-3.33
2019-01-22T22:05:13.333Z,-3.38
2019-01-22T22:07:41.620Z,-3.38
2019-01-22T22:10:15.471Z,-3.42
2019-01-22T22:12:43.789Z,-3.50
2019-01-22T22:15:14.771Z,-3.51
2019-01-22T22:17:43.061Z,-3.55
2019-01-22T22:20:15.449Z,-3.60
2019-01-22T22:22:43.694Z,-3.63
2019-01-22T22:25:17.596Z,-3.66
2019-01-22T22:27:45.838Z,-3.70
2019-01-22T22:30:16.928Z,-3.78
2019-01-22T22:32:45.185Z,-3.84
2019-01-22T22:35:13.426Z,-3.91
2019-01-22T22:37:41.827Z,-3.96
2019-01-22T22:40:15.586Z,-4.01
2019-01-22T22:42:43.873Z,-3.96
2019-01-22T22:45:15.053Z,-3.98
2019-01-22T22:47:43.340Z,-4.01
2019-01-22T22:50:19.814Z,-4.02
2019-01-22T22:52:48.307Z,-4.02
2019-01-22T22:55:16.714Z,-4.08
2019-01-22T22:57:44.972Z,-4.10
2019-01-22T23:00:33.260Z,-4.09
2019-01-22T23:03:02.252Z,-4.16
2019-01-22T23:05:30.502Z,-4.13
2019-01-22T23:07:58.794Z,-4.15
2019-01-22T23:10:27.055Z,-4.20
2019-01-22T23:12:55.533Z,-4.23
2019-01-22T23:15:23.782Z,-4.33
2019-01-22T23:17:52.025Z,-4.38
2019-01-22T23:20:20.423Z,-4.44
2019-01-22T23:22:48.664Z,-4.45
2019-01-22T23:25:16.941Z,-4.47
2019-01-22T23:27:45.554Z,-4.52
2019-01-22T23:30:15.855Z,-4.57
2019-01-22T23:32:45.335Z,-4.62
2019-01-22T23:35:13.617Z,-4.61
2019-01-22T23:37:41.892Z,-4.67
2019-01-22T23:40:14.495Z,-4.70
2019-01-22T23:42:42.778Z,-4.74
2019-01-22T23:45:12.273Z,-4.79
2019-01-22T23:47:40.528Z,-4.78
2019-01-22T23:50:11.246Z,-4.83
2019-01-22T23:52:39.607Z,-4.81
2019-01-22T23:55:08.836Z,-4.87
2019-01-22T23:57:37.086Z,-4.92
